sensor_id;sensor_type;location;lat;lon;timestamp;P1;durP1;ratioP1;P2;durP2;ratioP2
19193;SDS011;9729;52.296;13.260;2023-05-20T00:02:12;7.23;;;4.30;;
19193;SDS011;9729;52.296;13.260;2023-05-20T00:04:39;6.10;;;4.67;;
19193;SDS011;9729;52.296;13.260;2023-05-20T00:07:07;6.27;;;4.70;;
19193;SDS011;9729;52.296;13.260;2023-05-20T00:09:34;8.73;;;4.70;;
19193;SDS011;9729;52.296;13.260;2023-05-20T00:12:00;10.40;;;4.23;;
19193;SDS011;9729;52.296;13.260;2023-05-20T00:14:28;9.63;;;4.27;;
19193;SDS011;9729;52.296;13.260;2023-05-20T00:16:54;6.83;;;5.13;;
19193;SDS011;9729;52.296;13.260;2023-05-20T00:19:21;7.67;;;4.30;;
19193;SDS011;9729;52.296;13.260;2023-05-20T00:21:47;5.90;;;3.90;;
19193;SDS011;9729;52.296;13.260;2023-05-20T00:24:14;8.07;;;4.70;;
19193;SDS011;9729;52.296;13.260;2023-05-20T00:26:40;6.40;;;4.70;;
19193;SDS011;9729;52.296;13.260;2023-05-20T00:29:06;5.67;;;4.33;;
19193;SDS011;9729;52.296;13.260;2023-05-20T00:31:34;5.50;;;4.73;;
19193;SDS011;9729;52.296;13.260;2023-05-20T00:34:00;6.03;;;4.70;;
19193;SDS011;9729;52.296;13.260;2023-05-20T00:36:27;12.13;;;5.53;;
19193;SDS011;9729;52.296;13.260;2023-05-20T00:38:54;8.47;;;5.10;;
19193;SDS011;9729;52.296;13.260;2023-05-20T00:41:20;15.00;;;5.23;;
19193;SDS011;9729;52.296;13.260;2023-05-20T00:43:47;6.47;;;4.97;;
19193;SDS011;9729;52.296;13.260;2023-05-20T00:46:13;6.47;;;5.00;;
19193;SDS011;9729;52.296;13.260;2023-05-20T00:48:41;12.17;;;5.63;;
19193;SDS011;9729;52.296;13.260;2023-05-20T00:51:09;9.23;;;4.90;;
19193;SDS011;9729;52.296;13.260;2023-05-20T00:53:35;7.57;;;4.87;;
19193;SDS011;9729;52.296;13.260;2023-05-20T00:56:02;6.00;;;5.03;;
19193;SDS011;9729;52.296;13.260;2023-05-20T00:58:28;7.43;;;4.83;;
19193;SDS011;9729;52.296;13.260;2023-05-20T01:00:56;10.43;;;6.27;;
19193;SDS011;9729;52.296;13.260;2023-05-20T01:03:22;11.27;;;5.70;;
19193;SDS011;9729;52.296;13.260;2023-05-20T01:05:50;6.07;;;5.20;;
19193;SDS011;9729;52.296;13.260;2023-05-20T01:08:16;11.40;;;5.90;;
19193;SDS011;9729;52.296;13.260;2023-05-20T01:10:44;5.67;;;4.93;;
19193;SDS011;9729;52.296;13.260;2023-05-20T01:13:15;8.50;;;5.53;;
19193;SDS011;9729;52.296;13.260;2023-05-20T01:15:42;6.20;;;4.97;;
19193;SDS011;9729;52.296;13.260;2023-05-20T01:18:11;7.10;;;5.33;;
19193;SDS011;9729;52.296;13.260;2023-05-20T01:20:40;9.00;;;5.80;;
19193;SDS011;9729;52.296;13.260;2023-05-20T01:23:08;13.63;;;5.50;;
19193;SDS011;9729;52.296;13.260;2023-05-20T01:25:34;7.13;;;5.33;;
19193;SDS011;9729;52.296;13.260;2023-05-20T01:28:00;10.53;;;5.53;;
19193;SDS011;9729;52.296;13.260;2023-05-20T01:33:50;11.20;;;5.60;;
19193;SDS011;9729;52.296;13.260;2023-05-20T01:36:17;13.17;;;5.17;;
19193;SDS011;9729;52.296;13.260;2023-05-20T01:38:46;7.07;;;5.20;;
19193;SDS011;9729;52.296;13.260;2023-05-20T01:41:15;6.53;;;5.10;;
19193;SDS011;9729;52.296;13.260;2023-05-20T01:43:42;7.60;;;4.70;;
19193;SDS011;9729;52.296;13.260;2023-05-20T01:46:09;9.80;;;5.10;;
19193;SDS011;9729;52.296;13.260;2023-05-20T01:48:35;6.13;;;4.43;;
19193;SDS011;9729;52.296;13.260;2023-05-20T01:51:02;8.27;;;4.93;;
19193;SDS011;9729;52.296;13.260;2023-05-20T01:53:28;9.00;;;5.53;;
19193;SDS011;9729;52.296;13.260;2023-05-20T01:55:56;11.47;;;5.40;;
19193;SDS011;9729;52.296;13.260;2023-05-20T01:58:23;10.23;;;5.60;;
19193;SDS011;9729;52.296;13.260;2023-05-20T02:00:49;8.20;;;5.13;;
19193;SDS011;9729;52.296;13.260;2023-05-20T02:03:15;7.63;;;5.37;;
19193;SDS011;9729;52.296;13.260;2023-05-20T02:05:42;6.37;;;4.87;;
19193;SDS011;9729;52.296;13.260;2023-05-20T02:08:08;6.30;;;5.10;;
19193;SDS011;9729;52.296;13.260;2023-05-20T02:10:35;8.73;;;5.20;;
19193;SDS011;9729;52.296;13.260;2023-05-20T02:13:03;9.57;;;5.30;;
19193;SDS011;9729;52.296;13.260;2023-05-20T02:15:29;6.77;;;5.20;;
19193;SDS011;9729;52.296;13.260;2023-05-20T02:17:55;11.20;;;5.23;;
19193;SDS011;9729;52.296;13.260;2023-05-20T02:20:22;10.10;;;5.27;;
19193;SDS011;9729;52.296;13.260;2023-05-20T02:22:49;8.43;;;6.13;;
19193;SDS011;9729;52.296;13.260;2023-05-20T02:25:15;8.17;;;5.50;;
19193;SDS011;9729;52.296;13.260;2023-05-20T02:27:42;8.37;;;5.60;;
19193;SDS011;9729;52.296;13.260;2023-05-20T02:30:10;6.60;;;5.03;;
19193;SDS011;9729;52.296;13.260;2023-05-20T02:32:36;7.10;;;5.40;;
19193;SDS011;9729;52.296;13.260;2023-05-20T02:35:03;7.30;;;5.20;;
19193;SDS011;9729;52.296;13.260;2023-05-20T02:37:30;9.43;;;5.40;;
19193;SDS011;9729;52.296;13.260;2023-05-20T02:39:56;10.43;;;5.33;;
19193;SDS011;9729;52.296;13.260;2023-05-20T02:42:23;7.23;;;5.60;;
19193;SDS011;9729;52.296;13.260;2023-05-20T02:44:49;7.73;;;6.30;;
19193;SDS011;9729;52.296;13.260;2023-05-20T02:47:18;7.73;;;5.60;;
19193;SDS011;9729;52.296;13.260;2023-05-20T02:49:45;10.23;;;5.97;;
19193;SDS011;9729;52.296;13.260;2023-05-20T02:52:11;8.67;;;5.17;;
19193;SDS011;9729;52.296;13.260;2023-05-20T02:54:38;10.40;;;6.10;;
19193;SDS011;9729;52.296;13.260;2023-05-20T02:57:04;10.00;;;5.60;;
19193;SDS011;9729;52.296;13.260;2023-05-20T02:59:31;10.53;;;5.63;;
19193;SDS011;9729;52.296;13.260;2023-05-20T03:01:57;10.73;;;5.90;;
19193;SDS011;9729;52.296;13.260;2023-05-20T03:04:25;16.77;;;5.67;;
19193;SDS011;9729;52.296;13.260;2023-05-20T03:06:52;8.13;;;5.97;;
19193;SDS011;9729;52.296;13.260;2023-05-20T03:09:21;9.83;;;5.93;;
19193;SDS011;9729;52.296;13.260;2023-05-20T03:11:48;11.23;;;6.00;;
19193;SDS011;9729;52.296;13.260;2023-05-20T03:14:15;11.17;;;6.30;;
19193;SDS011;9729;52.296;13.260;2023-05-20T03:16:41;7.00;;;5.63;;
19193;SDS011;9729;52.296;13.260;2023-05-20T03:19:08;8.00;;;5.73;;
19193;SDS011;9729;52.296;13.260;2023-05-20T03:21:36;14.00;;;5.43;;
19193;SDS011;9729;52.296;13.260;2023-05-20T03:24:02;11.83;;;5.93;;
19193;SDS011;9729;52.296;13.260;2023-05-20T03:26:29;7.63;;;5.80;;
19193;SDS011;9729;52.296;13.260;2023-05-20T03:28:57;10.50;;;5.83;;
19193;SDS011;9729;52.296;13.260;2023-05-20T03:31:23;9.50;;;6.07;;
19193;SDS011;9729;52.296;13.260;2023-05-20T03:33:49;9.80;;;5.53;;
19193;SDS011;9729;52.296;13.260;2023-05-20T03:36:16;11.73;;;5.57;;
19193;SDS011;9729;52.296;13.260;2023-05-20T03:38:44;6.40;;;5.37;;
19193;SDS011;9729;52.296;13.260;2023-05-20T03:41:10;9.47;;;6.10;;
19193;SDS011;9729;52.296;13.260;2023-05-20T03:43:37;9.23;;;6.10;;
19193;SDS011;9729;52.296;13.260;2023-05-20T03:46:04;8.37;;;5.17;;
19193;SDS011;9729;52.296;13.260;2023-05-20T03:48:31;8.70;;;6.07;;
19193;SDS011;9729;52.296;13.260;2023-05-20T03:50:57;12.20;;;5.97;;
19193;SDS011;9729;52.296;13.260;2023-05-20T03:53:24;8.40;;;5.57;;
19193;SDS011;9729;52.296;13.260;2023-05-20T03:55:52;8.10;;;5.47;;
19193;SDS011;9729;52.296;13.260;2023-05-20T03:58:18;15.70;;;5.43;;
19193;SDS011;9729;52.296;13.260;2023-05-20T04:00:46;9.13;;;5.67;;
19193;SDS011;9729;52.296;13.260;2023-05-20T04:03:12;10.27;;;5.63;;
19193;SDS011;9729;52.296;13.260;2023-05-20T04:05:39;8.63;;;5.73;;
19193;SDS011;9729;52.296;13.260;2023-05-20T04:08:06;15.63;;;6.50;;
19193;SDS011;9729;52.296;13.260;2023-05-20T04:10:33;10.73;;;6.00;;
19193;SDS011;9729;52.296;13.260;2023-05-20T04:13:02;10.70;;;6.13;;
19193;SDS011;9729;52.296;13.260;2023-05-20T04:15:28;9.03;;;6.07;;
19193;SDS011;9729;52.296;13.260;2023-05-20T04:17:55;9.83;;;6.13;;
19193;SDS011;9729;52.296;13.260;2023-05-20T04:20:21;15.93;;;5.73;;
19193;SDS011;9729;52.296;13.260;2023-05-20T04:22:48;11.47;;;6.50;;
19193;SDS011;9729;52.296;13.260;2023-05-20T04:25:14;10.43;;;6.50;;
19193;SDS011;9729;52.296;13.260;2023-05-20T04:27:41;9.50;;;6.40;;
19193;SDS011;9729;52.296;13.260;2023-05-20T04:30:09;14.40;;;6.53;;
19193;SDS011;9729;52.296;13.260;2023-05-20T04:32:36;14.17;;;6.73;;
19193;SDS011;9729;52.296;13.260;2023-05-20T04:35:03;8.30;;;5.93;;
19193;SDS011;9729;52.296;13.260;2023-05-20T04:37:32;10.83;;;6.20;;
19193;SDS011;9729;52.296;13.260;2023-05-20T04:39:58;10.27;;;5.47;;
19193;SDS011;9729;52.296;13.260;2023-05-20T04:42:28;12.77;;;5.90;;
19193;SDS011;9729;52.296;13.260;2023-05-20T04:44:55;11.27;;;6.60;;
19193;SDS011;9729;52.296;13.260;2023-05-20T04:47:23;13.47;;;6.53;;
19193;SDS011;9729;52.296;13.260;2023-05-20T04:49:50;16.37;;;6.33;;
19193;SDS011;9729;52.296;13.260;2023-05-20T04:52:17;9.70;;;5.87;;
19193;SDS011;9729;52.296;13.260;2023-05-20T04:54:43;9.87;;;6.40;;
19193;SDS011;9729;52.296;13.260;2023-05-20T04:57:09;8.80;;;6.67;;
19193;SDS011;9729;52.296;13.260;2023-05-20T04:59:36;10.13;;;6.07;;
19193;SDS011;9729;52.296;13.260;2023-05-20T05:02:02;13.53;;;7.57;;
19193;SDS011;9729;52.296;13.260;2023-05-20T05:04:30;14.03;;;6.43;;
19193;SDS011;9729;52.296;13.260;2023-05-20T05:06:57;10.57;;;5.97;;
19193;SDS011;9729;52.296;13.260;2023-05-20T05:09:23;14.67;;;7.57;;
19193;SDS011;9729;52.296;13.260;2023-05-20T05:11:50;11.40;;;6.40;;
19193;SDS011;9729;52.296;13.260;2023-05-20T05:14:16;12.20;;;6.30;;
19193;SDS011;9729;52.296;13.260;2023-05-20T05:16:43;9.83;;;6.53;;
19193;SDS011;9729;52.296;13.260;2023-05-20T05:19:09;12.00;;;6.30;;
19193;SDS011;9729;52.296;13.260;2023-05-20T05:21:38;14.40;;;6.77;;
19193;SDS011;9729;52.296;13.260;2023-05-20T05:24:05;15.27;;;7.77;;
19193;SDS011;9729;52.296;13.260;2023-05-20T05:26:32;9.57;;;6.20;;
19193;SDS011;9729;52.296;13.260;2023-05-20T05:28:58;11.83;;;5.90;;
19193;SDS011;9729;52.296;13.260;2023-05-20T05:31:25;11.67;;;6.27;;
19193;SDS011;9729;52.296;13.260;2023-05-20T05:33:51;13.10;;;7.30;;
19193;SDS011;9729;52.296;13.260;2023-05-20T05:36:18;9.00;;;6.23;;
19193;SDS011;9729;52.296;13.260;2023-05-20T05:38:45;12.50;;;7.17;;
19193;SDS011;9729;52.296;13.260;2023-05-20T05:41:12;10.97;;;6.60;;
19193;SDS011;9729;52.296;13.260;2023-05-20T05:43:38;10.70;;;7.30;;
19193;SDS011;9729;52.296;13.260;2023-05-20T05:46:05;13.40;;;7.63;;
19193;SDS011;9729;52.296;13.260;2023-05-20T05:48:31;12.20;;;7.33;;
19193;SDS011;9729;52.296;13.260;2023-05-20T05:50:58;18.83;;;7.50;;
19193;SDS011;9729;52.296;13.260;2023-05-20T05:53:24;16.83;;;7.07;;
19193;SDS011;9729;52.296;13.260;2023-05-20T05:55:52;16.13;;;6.80;;
19193;SDS011;9729;52.296;13.260;2023-05-20T05:58:19;14.00;;;7.47;;
19193;SDS011;9729;52.296;13.260;2023-05-20T06:00:45;12.23;;;6.87;;
19193;SDS011;9729;52.296;13.260;2023-05-20T06:03:11;12.83;;;7.60;;
19193;SDS011;9729;52.296;13.260;2023-05-20T06:05:38;12.27;;;7.90;;
19193;SDS011;9729;52.296;13.260;2023-05-20T06:08:04;14.67;;;7.90;;
19193;SDS011;9729;52.296;13.260;2023-05-20T06:10:31;15.63;;;7.70;;
19193;SDS011;9729;52.296;13.260;2023-05-20T06:12:59;13.43;;;7.33;;
19193;SDS011;9729;52.296;13.260;2023-05-20T06:15:25;15.47;;;7.43;;
19193;SDS011;9729;52.296;13.260;2023-05-20T06:17:51;10.50;;;6.77;;
19193;SDS011;9729;52.296;13.260;2023-05-20T06:20:18;9.90;;;7.17;;
19193;SDS011;9729;52.296;13.260;2023-05-20T06:22:44;12.97;;;7.57;;
19193;SDS011;9729;52.296;13.260;2023-05-20T06:25:11;17.93;;;10.53;;
19193;SDS011;9729;52.296;13.260;2023-05-20T06:27:37;9.40;;;7.33;;
19193;SDS011;9729;52.296;13.260;2023-05-20T06:30:06;15.03;;;7.67;;
19193;SDS011;9729;52.296;13.260;2023-05-20T06:32:33;16.57;;;8.00;;
19193;SDS011;9729;52.296;13.260;2023-05-20T06:35:00;11.50;;;7.57;;
19193;SDS011;9729;52.296;13.260;2023-05-20T06:37:27;15.53;;;7.73;;
19193;SDS011;9729;52.296;13.260;2023-05-20T06:39:53;12.83;;;7.17;;
19193;SDS011;9729;52.296;13.260;2023-05-20T06:42:20;15.33;;;7.60;;
19193;SDS011;9729;52.296;13.260;2023-05-20T06:44:46;16.50;;;7.60;;
19193;SDS011;9729;52.296;13.260;2023-05-20T06:47:15;11.90;;;7.80;;
19193;SDS011;9729;52.296;13.260;2023-05-20T06:49:42;11.87;;;7.33;;
19193;SDS011;9729;52.296;13.260;2023-05-20T06:52:10;18.10;;;7.23;;
19193;SDS011;9729;52.296;13.260;2023-05-20T06:54:37;22.37;;;7.60;;
19193;SDS011;9729;52.296;13.260;2023-05-20T06:57:06;13.43;;;7.80;;
19193;SDS011;9729;52.296;13.260;2023-05-20T06:59:32;13.03;;;7.70;;
19193;SDS011;9729;52.296;13.260;2023-05-20T07:01:59;17.20;;;8.60;;
19193;SDS011;9729;52.296;13.260;2023-05-20T07:04:27;12.80;;;8.10;;
19193;SDS011;9729;52.296;13.260;2023-05-20T07:06:53;13.23;;;7.90;;
19193;SDS011;9729;52.296;13.260;2023-05-20T07:09:20;11.23;;;7.10;;
19193;SDS011;9729;52.296;13.260;2023-05-20T07:11:47;12.93;;;8.13;;
19193;SDS011;9729;52.296;13.260;2023-05-20T07:14:14;12.20;;;7.77;;
19193;SDS011;9729;52.296;13.260;2023-05-20T07:16:40;13.30;;;8.07;;
19193;SDS011;9729;52.296;13.260;2023-05-20T07:19:07;15.73;;;7.67;;
19193;SDS011;9729;52.296;13.260;2023-05-20T07:21:36;13.63;;;7.10;;
19193;SDS011;9729;52.296;13.260;2023-05-20T07:24:03;18.40;;;7.83;;
19193;SDS011;9729;52.296;13.260;2023-05-20T07:26:29;13.17;;;6.97;;
19193;SDS011;9729;52.296;13.260;2023-05-20T07:28:57;12.20;;;7.10;;
19193;SDS011;9729;52.296;13.260;2023-05-20T07:31:24;13.17;;;7.97;;
19193;SDS011;9729;52.296;13.260;2023-05-20T07:33:51;16.93;;;8.97;;
19193;SDS011;9729;52.296;13.260;2023-05-20T07:36:17;10.07;;;7.90;;
19193;SDS011;9729;52.296;13.260;2023-05-20T07:38:45;13.77;;;7.83;;
19193;SDS011;9729;52.296;13.260;2023-05-20T07:41:11;11.90;;;7.90;;
19193;SDS011;9729;52.296;13.260;2023-05-20T07:43:38;15.80;;;8.27;;
19193;SDS011;9729;52.296;13.260;2023-05-20T07:46:04;21.70;;;8.10;;
19193;SDS011;9729;52.296;13.260;2023-05-20T07:48:30;10.17;;;6.73;;
19193;SDS011;9729;52.296;13.260;2023-05-20T07:50:57;13.27;;;8.87;;
19193;SDS011;9729;52.296;13.260;2023-05-20T07:53:23;13.43;;;7.33;;
19193;SDS011;9729;52.296;13.260;2023-05-20T07:55:51;11.40;;;7.00;;
19193;SDS011;9729;52.296;13.260;2023-05-20T07:58:17;8.87;;;6.50;;
19193;SDS011;9729;52.296;13.260;2023-05-20T08:00:44;14.70;;;7.17;;
19193;SDS011;9729;52.296;13.260;2023-05-20T08:03:11;11.60;;;7.10;;
19193;SDS011;9729;52.296;13.260;2023-05-20T08:05:40;14.27;;;7.10;;
19193;SDS011;9729;52.296;13.260;2023-05-20T08:08:08;10.70;;;6.80;;
19193;SDS011;9729;52.296;13.260;2023-05-20T08:10:35;20.87;;;7.67;;
19193;SDS011;9729;52.296;13.260;2023-05-20T08:13:03;8.40;;;6.57;;
19193;SDS011;9729;52.296;13.260;2023-05-20T08:15:29;8.20;;;6.20;;
19193;SDS011;9729;52.296;13.260;2023-05-20T08:17:56;17.00;;;6.97;;
19193;SDS011;9729;52.296;13.260;2023-05-20T08:20:22;12.83;;;7.10;;
19193;SDS011;9729;52.296;13.260;2023-05-20T08:22:50;8.60;;;6.53;;
19193;SDS011;9729;52.296;13.260;2023-05-20T08:25:16;9.13;;;6.37;;
19193;SDS011;9729;52.296;13.260;2023-05-20T08:27:44;9.50;;;7.03;;
19193;SDS011;9729;52.296;13.260;2023-05-20T08:30:12;14.83;;;7.03;;
19193;SDS011;9729;52.296;13.260;2023-05-20T08:32:38;10.67;;;6.70;;
19193;SDS011;9729;52.296;13.260;2023-05-20T08:35:05;13.17;;;6.83;;
19193;SDS011;9729;52.296;13.260;2023-05-20T08:37:32;10.73;;;5.90;;
19193;SDS011;9729;52.296;13.260;2023-05-20T08:39:58;8.87;;;6.47;;
19193;SDS011;9729;52.296;13.260;2023-05-20T08:42:27;13.43;;;6.40;;
19193;SDS011;9729;52.296;13.260;2023-05-20T08:44:56;12.17;;;7.20;;
19193;SDS011;9729;52.296;13.260;2023-05-20T08:47:24;12.77;;;7.57;;
19193;SDS011;9729;52.296;13.260;2023-05-20T08:49:51;11.43;;;7.23;;
19193;SDS011;9729;52.296;13.260;2023-05-20T08:52:20;14.00;;;8.13;;
19193;SDS011;9729;52.296;13.260;2023-05-20T08:54:47;10.67;;;7.20;;
19193;SDS011;9729;52.296;13.260;2023-05-20T08:57:15;10.67;;;6.80;;
19193;SDS011;9729;52.296;13.260;2023-05-20T08:59:44;16.00;;;8.50;;
19193;SDS011;9729;52.296;13.260;2023-05-20T09:02:11;8.80;;;7.77;;
19193;SDS011;9729;52.296;13.260;2023-05-20T09:04:39;9.93;;;6.93;;
19193;SDS011;9729;52.296;13.260;2023-05-20T09:07:06;12.20;;;8.07;;
19193;SDS011;9729;52.296;13.260;2023-05-20T09:09:33;10.40;;;7.20;;
19193;SDS011;9729;52.296;13.260;2023-05-20T09:12:00;20.67;;;9.13;;
19193;SDS011;9729;52.296;13.260;2023-05-20T09:14:27;14.13;;;8.30;;
19193;SDS011;9729;52.296;13.260;2023-05-20T09:16:54;14.63;;;8.47;;
19193;SDS011;9729;52.296;13.260;2023-05-20T09:19:20;16.03;;;9.50;;
19193;SDS011;9729;52.296;13.260;2023-05-20T09:21:49;13.63;;;8.57;;
19193;SDS011;9729;52.296;13.260;2023-05-20T09:24:19;18.83;;;10.27;;
19193;SDS011;9729;52.296;13.260;2023-05-20T09:26:47;15.60;;;9.40;;
19193;SDS011;9729;52.296;13.260;2023-05-20T09:29:14;16.27;;;9.20;;
19193;SDS011;9729;52.296;13.260;2023-05-20T09:31:40;14.73;;;9.50;;
19193;SDS011;9729;52.296;13.260;2023-05-20T09:34:07;17.30;;;10.30;;
19193;SDS011;9729;52.296;13.260;2023-05-20T09:36:34;16.47;;;9.90;;
19193;SDS011;9729;52.296;13.260;2023-05-20T09:39:02;17.23;;;10.33;;
19193;SDS011;9729;52.296;13.260;2023-05-20T09:41:30;21.33;;;10.57;;
19193;SDS011;9729;52.296;13.260;2023-05-20T09:43:59;18.43;;;9.57;;
19193;SDS011;9729;52.296;13.260;2023-05-20T09:46:25;17.00;;;10.13;;
19193;SDS011;9729;52.296;13.260;2023-05-20T09:48:53;21.93;;;10.97;;
19193;SDS011;9729;52.296;13.260;2023-05-20T09:51:20;13.23;;;9.30;;
19193;SDS011;9729;52.296;13.260;2023-05-20T09:53:48;15.97;;;9.50;;
19193;SDS011;9729;52.296;13.260;2023-05-20T09:56:16;21.60;;;10.03;;
19193;SDS011;9729;52.296;13.260;2023-05-20T09:58:43;15.17;;;9.13;;
19193;SDS011;9729;52.296;13.260;2023-05-20T10:01:10;16.93;;;9.90;;
19193;SDS011;9729;52.296;13.260;2023-05-20T10:03:37;14.60;;;9.00;;
19193;SDS011;9729;52.296;13.260;2023-05-20T10:06:10;17.93;;;10.60;;
19193;SDS011;9729;52.296;13.260;2023-05-20T10:08:52;14.30;;;9.67;;
19193;SDS011;9729;52.296;13.260;2023-05-20T10:11:27;13.07;;;10.30;;
19193;SDS011;9729;52.296;13.260;2023-05-20T10:14:02;15.73;;;8.97;;
19193;SDS011;9729;52.296;13.260;2023-05-20T10:16:37;18.90;;;9.63;;
19193;SDS011;9729;52.296;13.260;2023-05-20T10:19:11;12.03;;;8.50;;
19193;SDS011;9729;52.296;13.260;2023-05-20T10:21:55;13.33;;;9.27;;
19193;SDS011;9729;52.296;13.260;2023-05-20T10:24:28;14.27;;;9.33;;
19193;SDS011;9729;52.296;13.260;2023-05-20T10:26:57;15.67;;;10.47;;
19193;SDS011;9729;52.296;13.260;2023-05-20T10:29:23;12.83;;;9.40;;
19193;SDS011;9729;52.296;13.260;2023-05-20T10:31:50;21.07;;;10.00;;
19193;SDS011;9729;52.296;13.260;2023-05-20T10:34:18;13.13;;;9.33;;
19193;SDS011;9729;52.296;13.260;2023-05-20T10:36:45;15.40;;;9.80;;
19193;SDS011;9729;52.296;13.260;2023-05-20T10:39:13;13.47;;;9.50;;
19193;SDS011;9729;52.296;13.260;2023-05-20T10:41:41;14.73;;;9.37;;
19193;SDS011;9729;52.296;13.260;2023-05-20T10:44:15;16.57;;;10.20;;
19193;SDS011;9729;52.296;13.260;2023-05-20T10:46:41;14.03;;;9.10;;
19193;SDS011;9729;52.296;13.260;2023-05-20T10:49:19;12.70;;;9.83;;
19193;SDS011;9729;52.296;13.260;2023-05-20T10:51:55;14.30;;;9.40;;
19193;SDS011;9729;52.296;13.260;2023-05-20T10:54:22;13.53;;;8.87;;
19193;SDS011;9729;52.296;13.260;2023-05-20T10:56:50;13.57;;;8.90;;
19193;SDS011;9729;52.296;13.260;2023-05-20T10:59:18;14.03;;;9.23;;
19193;SDS011;9729;52.296;13.260;2023-05-20T11:01:46;17.37;;;9.50;;
19193;SDS011;9729;52.296;13.260;2023-05-20T11:04:13;13.10;;;8.93;;
19193;SDS011;9729;52.296;13.260;2023-05-20T11:06:48;12.83;;;8.53;;
19193;SDS011;9729;52.296;13.260;2023-05-20T11:09:15;12.87;;;8.63;;
19193;SDS011;9729;52.296;13.260;2023-05-20T11:11:41;12.63;;;9.13;;
19193;SDS011;9729;52.296;13.260;2023-05-20T11:14:08;15.73;;;9.70;;
19193;SDS011;9729;52.296;13.260;2023-05-20T11:16:38;13.43;;;9.40;;
19193;SDS011;9729;52.296;13.260;2023-05-20T11:19:05;13.70;;;8.63;;
19193;SDS011;9729;52.296;13.260;2023-05-20T11:21:32;13.00;;;9.10;;
19193;SDS011;9729;52.296;13.260;2023-05-20T11:23:59;13.13;;;9.60;;
19193;SDS011;9729;52.296;13.260;2023-05-20T11:26:25;14.10;;;10.03;;
19193;SDS011;9729;52.296;13.260;2023-05-20T11:28:54;14.73;;;10.30;;
19193;SDS011;9729;52.296;13.260;2023-05-20T11:31:21;14.57;;;9.13;;
19193;SDS011;9729;52.296;13.260;2023-05-20T11:33:50;18.10;;;10.63;;
19193;SDS011;9729;52.296;13.260;2023-05-20T11:36:17;12.27;;;9.37;;
19193;SDS011;9729;52.296;13.260;2023-05-20T11:38:44;17.50;;;9.80;;
19193;SDS011;9729;52.296;13.260;2023-05-20T11:41:11;12.47;;;9.27;;
19193;SDS011;9729;52.296;13.260;2023-05-20T11:43:38;12.47;;;8.70;;
19193;SDS011;9729;52.296;13.260;2023-05-20T11:46:06;14.17;;;9.30;;
19193;SDS011;9729;52.296;13.260;2023-05-20T11:48:33;12.13;;;8.80;;
19193;SDS011;9729;52.296;13.260;2023-05-20T11:51:01;15.23;;;9.90;;
19193;SDS011;9729;52.296;13.260;2023-05-20T11:53:28;13.37;;;9.00;;
19193;SDS011;9729;52.296;13.260;2023-05-20T11:55:55;12.17;;;8.97;;
19193;SDS011;9729;52.296;13.260;2023-05-20T11:58:23;13.60;;;9.43;;
19193;SDS011;9729;52.296;13.260;2023-05-20T12:00:51;14.37;;;9.57;;
19193;SDS011;9729;52.296;13.260;2023-05-20T12:03:18;15.13;;;9.63;;
19193;SDS011;9729;52.296;13.260;2023-05-20T12:05:44;15.03;;;10.07;;
19193;SDS011;9729;52.296;13.260;2023-05-20T12:08:13;11.23;;;8.77;;
19193;SDS011;9729;52.296;13.260;2023-05-20T12:10:40;15.73;;;8.40;;
19193;SDS011;9729;52.296;13.260;2023-05-20T12:13:06;19.37;;;10.00;;
19193;SDS011;9729;52.296;13.260;2023-05-20T12:15:35;14.97;;;8.83;;
19193;SDS011;9729;52.296;13.260;2023-05-20T12:18:01;13.90;;;9.13;;
19193;SDS011;9729;52.296;13.260;2023-05-20T12:20:28;17.50;;;9.07;;
19193;SDS011;9729;52.296;13.260;2023-05-20T12:22:58;15.93;;;9.43;;
19193;SDS011;9729;52.296;13.260;2023-05-20T12:25:25;13.70;;;9.70;;
19193;SDS011;9729;52.296;13.260;2023-05-20T12:27:52;16.80;;;9.43;;
19193;SDS011;9729;52.296;13.260;2023-05-20T12:30:19;13.40;;;8.97;;
19193;SDS011;9729;52.296;13.260;2023-05-20T12:32:47;15.13;;;8.17;;
19193;SDS011;9729;52.296;13.260;2023-05-20T12:35:14;12.23;;;8.77;;
19193;SDS011;9729;52.296;13.260;2023-05-20T12:37:41;19.37;;;9.60;;
19193;SDS011;9729;52.296;13.260;2023-05-20T12:40:09;15.67;;;9.03;;
19193;SDS011;9729;52.296;13.260;2023-05-20T12:42:38;18.30;;;9.60;;
19193;SDS011;9729;52.296;13.260;2023-05-20T12:45:05;14.07;;;8.90;;
19193;SDS011;9729;52.296;13.260;2023-05-20T12:47:33;17.33;;;8.90;;
19193;SDS011;9729;52.296;13.260;2023-05-20T12:50:00;11.10;;;8.70;;
19193;SDS011;9729;52.296;13.260;2023-05-20T12:52:27;14.33;;;9.57;;
19193;SDS011;9729;52.296;13.260;2023-05-20T12:54:54;12.83;;;8.83;;
19193;SDS011;9729;52.296;13.260;2023-05-20T12:57:21;14.07;;;9.33;;
19193;SDS011;9729;52.296;13.260;2023-05-20T12:59:49;11.63;;;8.80;;
19193;SDS011;9729;52.296;13.260;2023-05-20T13:02:16;11.57;;;8.67;;
19193;SDS011;9729;52.296;13.260;2023-05-20T13:04:45;14.37;;;9.93;;
19193;SDS011;9729;52.296;13.260;2023-05-20T13:07:11;10.73;;;8.70;;
19193;SDS011;9729;52.296;13.260;2023-05-20T13:09:38;16.47;;;9.70;;
19193;SDS011;9729;52.296;13.260;2023-05-20T13:12:05;14.37;;;9.93;;
19193;SDS011;9729;52.296;13.260;2023-05-20T13:14:32;16.83;;;9.87;;
19193;SDS011;9729;52.296;13.260;2023-05-20T13:16:59;12.63;;;9.03;;
19193;SDS011;9729;52.296;13.260;2023-05-20T13:19:26;20.37;;;11.07;;
19193;SDS011;9729;52.296;13.260;2023-05-20T13:21:52;13.50;;;9.97;;
19193;SDS011;9729;52.296;13.260;2023-05-20T13:24:19;18.57;;;9.37;;
19193;SDS011;9729;52.296;13.260;2023-05-20T13:26:46;17.37;;;10.07;;
19193;SDS011;9729;52.296;13.260;2023-05-20T13:29:12;16.90;;;8.93;;
19193;SDS011;9729;52.296;13.260;2023-05-20T13:31:39;14.27;;;9.93;;
19193;SDS011;9729;52.296;13.260;2023-05-20T13:34:07;12.67;;;8.30;;
19193;SDS011;9729;52.296;13.260;2023-05-20T13:36:33;9.90;;;8.33;;
19193;SDS011;9729;52.296;13.260;2023-05-20T13:39:00;15.00;;;9.13;;
19193;SDS011;9729;52.296;13.260;2023-05-20T13:41:26;11.90;;;8.93;;
19193;SDS011;9729;52.296;13.260;2023-05-20T13:43:54;19.57;;;8.77;;
19193;SDS011;9729;52.296;13.260;2023-05-20T13:46:20;12.27;;;8.00;;
19193;SDS011;9729;52.296;13.260;2023-05-20T13:48:47;18.67;;;9.23;;
19193;SDS011;9729;52.296;13.260;2023-05-20T13:51:14;13.23;;;8.83;;
19193;SDS011;9729;52.296;13.260;2023-05-20T13:53:41;11.77;;;8.57;;
19193;SDS011;9729;52.296;13.260;2023-05-20T13:56:07;12.17;;;8.57;;
19193;SDS011;9729;52.296;13.260;2023-05-20T13:58:37;13.33;;;8.13;;
19193;SDS011;9729;52.296;13.260;2023-05-20T14:01:04;11.73;;;8.00;;
19193;SDS011;9729;52.296;13.260;2023-05-20T14:03:31;16.33;;;8.97;;
19193;SDS011;9729;52.296;13.260;2023-05-20T14:05:58;11.23;;;7.27;;
19193;SDS011;9729;52.296;13.260;2023-05-20T14:08:27;12.30;;;8.80;;
19193;SDS011;9729;52.296;13.260;2023-05-20T14:10:53;11.60;;;8.17;;
19193;SDS011;9729;52.296;13.260;2023-05-20T14:13:20;10.70;;;8.60;;
19193;SDS011;9729;52.296;13.260;2023-05-20T14:15:46;11.60;;;7.33;;
19193;SDS011;9729;52.296;13.260;2023-05-20T14:18:13;12.13;;;8.53;;
19193;SDS011;9729;52.296;13.260;2023-05-20T14:20:39;11.43;;;9.27;;
19193;SDS011;9729;52.296;13.260;2023-05-20T14:23:08;17.83;;;8.63;;
19193;SDS011;9729;52.296;13.260;2023-05-20T14:25:36;12.80;;;8.00;;
19193;SDS011;9729;52.296;13.260;2023-05-20T14:28:02;11.17;;;7.50;;
19193;SDS011;9729;52.296;13.260;2023-05-20T14:30:29;13.23;;;8.67;;
19193;SDS011;9729;52.296;13.260;2023-05-20T14:32:56;13.87;;;9.23;;
19193;SDS011;9729;52.296;13.260;2023-05-20T14:35:22;9.60;;;8.60;;
19193;SDS011;9729;52.296;13.260;2023-05-20T14:37:49;16.47;;;8.37;;
19193;SDS011;9729;52.296;13.260;2023-05-20T14:40:15;8.40;;;7.10;;
19193;SDS011;9729;52.296;13.260;2023-05-20T14:42:44;11.13;;;8.70;;